Time;durP1;ratioP1;P1;durP2;ratioP2;P2;SDS_P1;SDS_P2;PMS_P1;PMS_P2;Temp;Humidity;BMP_temperature;BMP_pressure;BME280_temperature;BME280_humidity;BME280_pressure;Samples;Min_cycle;Max_cycle;Signal;HPM_P1;HPM_P2
2022/05/25 00:01:18;;;;;;;14.73;11.18;;;;;;;19.16;100.00;100950.19;4882808;29;20033;-71
2022/05/25 00:04:05;;;;;;;13.98;10.88;;;;;;;18.87;100.00;100946.31;4882150;29;20095;-72
2022/05/25 00:06:51;;;;;;;16.98;11.55;;;;;;;18.93;100.00;100956.59;4881867;29;20092;-72
2022/05/25 00:09:37;;;;;;;13.93;10.68;;;;;;;18.77;100.00;100955.63;4869268;29;20029;-72
2022/05/25 00:12:23;;;;;;;15.07;11.50;;;;;;;18.75;100.00;100961.94;4869611;29;20045;-73
2022/05/25 00:15:12;;;;;;;13.25;10.57;;;;;;;19.11;100.00;100962.84;4869700;29;20442;-73
2022/05/25 00:17:58;;;;;;;15.73;11.70;;;;;;;18.93;100.00;100974.34;4869007;29;20123;-72
2022/05/25 00:20:43;;;;;;;11.40;9.88;;;;;;;18.98;100.00;100962.56;4881740;29;20496;-72
2022/05/25 00:23:29;;;;;;;14.13;10.75;;;;;;;19.15;100.00;100973.25;4868759;29;20048;-72
2022/05/25 00:26:15;;;;;;;13.98;10.45;;;;;;;18.57;100.00;100974.25;4869611;29;20033;-72
2022/05/25 00:29:02;;;;;;;13.73;10.45;;;;;;;18.90;100.00;100980.66;4882021;29;20057;-72
2022/05/25 00:31:48;;;;;;;13.10;10.07;;;;;;;19.10;100.00;100977.06;4882274;29;20462;-72
2022/05/25 00:34:34;;;;;;;11.65;9.88;;;;;;;19.16;100.00;100971.44;4868733;29;20037;-73
2022/05/25 00:37:20;;;;;;;11.60;9.40;;;;;;;19.08;100.00;100981.56;4882532;29;20123;-73
2022/05/25 00:40:08;;;;;;;12.63;9.00;;;;;;;18.84;100.00;100982.72;4868814;29;20032;-73
2022/05/25 00:42:54;;;;;;;10.05;8.38;;;;;;;18.82;100.00;100979.31;4882053;29;20029;-73
2022/05/25 00:45:48;;;;;;;9.45;7.85;;;;;;;18.77;100.00;100987.47;4881817;29;20025;-72
2022/05/25 00:49:06;;;;;;;8.70;6.97;;;;;;;18.80;100.00;100986.47;4882753;29;20033;-73
2022/05/25 00:51:53;;;;;;;11.50;7.50;;;;;;;18.80;100.00;100994.44;4881890;29;20072;-73
2022/05/25 00:54:44;;;;;;;8.52;7.10;;;;;;;18.53;100.00;100995.72;4868476;29;20029;-73
2022/05/25 00:57:43;;;;;;;9.73;7.13;;;;;;;18.94;100.00;101005.28;4881756;29;20058;-72
2022/05/25 01:00:30;;;;;;;8.88;7.72;;;;;;;18.59;100.00;101006.91;4881364;29;20025;-72
2022/05/25 01:03:16;;;;;;;6.93;6.22;;;;;;;18.61;100.00;101010.34;4867755;29;20029;-72
2022/05/25 01:06:29;;;;;;;6.45;5.38;;;;;;;18.35;100.00;101015.09;4881763;29;20068;-73
2022/05/25 01:09:15;;;;;;;8.73;5.68;;;;;;;18.51;100.00;101006.41;4880183;29;20041;-73
2022/05/25 01:12:16;;;;;;;10.32;5.72;;;;;;;18.74;100.00;101014.16;4881581;29;20107;-73
2022/05/25 01:15:20;;;;;;;6.07;5.38;;;;;;;18.77;100.00;101023.78;4881724;29;20332;-72
2022/05/25 01:18:52;;;;;;;6.32;5.53;;;;;;;18.53;100.00;101019.59;4880996;29;20033;-72
2022/05/25 01:21:51;;;;;;;8.65;5.05;;;;;;;18.09;100.00;101013.56;4864395;29;20055;-72
2022/05/25 01:24:58;;;;;;;6.00;5.05;;;;;;;18.16;100.00;101009.72;4881914;29;20048;-73
2022/05/25 01:27:46;;;;;;;6.93;5.53;;;;;;;18.26;100.00;101005.75;4881871;29;20047;-72
2022/05/25 01:30:41;;;;;;;7.32;4.90;;;;;;;17.99;100.00;101006.06;4880989;29;20025;-74
2022/05/25 01:33:34;;;;;;;5.95;4.53;;;;;;;18.26;100.00;101003.09;4881607;29;20033;-73
2022/05/25 01:36:27;;;;;;;5.75;4.95;;;;;;;18.47;100.00;100996.84;4881222;29;20490;-72
2022/05/25 01:39:20;;;;;;;5.65;4.32;;;;;;;18.47;100.00;101001.28;4881557;29;20056;-73
2022/05/25 01:42:18;;;;;;;6.47;4.45;;;;;;;18.34;100.00;101002.78;4880659;29;20044;-74
2022/05/25 01:45:07;;;;;;;5.47;4.00;;;;;;;18.51;100.00;100994.91;4881291;29;20462;-72
2022/05/25 01:47:54;;;;;;;6.68;5.03;;;;;;;18.66;100.00;100995.06;4881022;29;20037;-72
2022/05/25 01:50:45;;;;;;;7.95;4.82;;;;;;;18.31;100.00;100989.59;4881165;29;20044;-73
2022/05/25 01:53:37;;;;;;;6.13;4.95;;;;;;;18.52;100.00;101001.94;4880475;29;20435;-72
2022/05/25 01:56:26;;;;;;;5.30;4.65;;;;;;;18.37;100.00;100998.19;4881114;29;20138;-73
2022/05/25 01:59:15;;;;;;;6.93;4.95;;;;;;;18.64;100.00;100996.94;4881075;29;20025;-72
2022/05/25 02:05:15;;;;;;;6.13;4.65;;;;;;;18.43;100.00;100991.75;4880827;29;20024;-73
2022/05/25 02:08:30;;;;;;;8.23;4.75;;;;;;;18.82;100.00;100997.88;4880958;29;20108;-73
2022/05/25 02:11:34;;;;;;;8.05;5.60;;;;;;;18.40;100.00;101003.34;4880406;29;20029;-73
2022/05/25 02:14:58;;;;;;;9.50;4.97;;;;;;;18.41;100.00;100998.94;4867782;29;20348;-72
2022/05/25 02:18:05;;;;;;;7.78;5.70;;;;;;;18.40;100.00;101007.78;4867086;29;20032;-72
2022/05/25 02:21:17;;;;;;;9.25;6.50;;;;;;;18.24;100.00;101004.94;4880072;29;20053;-73
2022/05/25 02:24:09;;;;;;;7.72;6.10;;;;;;;18.28;100.00;101019.78;4880020;29;20048;-72
2022/05/25 02:27:28;;;;;;;8.35;5.53;;;;;;;18.09;100.00;101023.31;4880736;29;20033;-72
2022/05/25 02:30:18;;;;;;;10.65;6.40;;;;;;;18.39;100.00;101019.34;4868918;29;20108;-72
2022/05/25 02:33:28;;;;;;;9.90;7.85;;;;;;;18.43;100.00;101026.25;4884885;29;20044;-72
2022/05/25 02:36:16;;;;;;;10.48;9.27;;;;;;;18.16;100.00;101038.03;4883902;29;20081;-72
2022/05/25 02:39:08;;;;;;;10.13;9.02;;;;;;;18.13;100.00;101046.13;4870873;29;20319;-72
2022/05/25 02:41:56;;;;;;;10.93;8.75;;;;;;;17.79;100.00;101043.16;4884086;29;20431;-72
2022/05/25 02:44:43;;;;;;;16.63;11.30;;;;;;;17.89;100.00;101047.19;4884396;29;20025;-72
2022/05/25 02:47:29;;;;;;;16.02;11.07;;;;;;;18.04;100.00;101047.38;4871191;29;20044;-73
2022/05/25 02:50:15;;;;;;;16.88;11.57;;;;;;;17.83;100.00;101048.28;4883848;29;20029;-73
2022/05/25 02:53:00;;;;;;;17.20;12.75;;;;;;;17.54;100.00;101047.75;4870488;29;20037;-73
2022/05/25 02:55:46;;;;;;;15.23;12.27;;;;;;;17.71;100.00;101066.47;4883650;29;20492;-73
2022/05/25 02:58:32;;;;;;;14.68;12.57;;;;;;;17.66;100.00;101065.81;4871113;29;20029;-73
2022/05/25 03:01:18;;;;;;;15.35;13.07;;;;;;;17.72;100.00;101065.56;4870477;29;20033;-71
2022/05/25 03:04:05;;;;;;;18.45;13.05;;;;;;;17.66;100.00;101060.50;4882713;29;20021;-72
2022/05/25 03:06:51;;;;;;;16.48;12.50;;;;;;;17.35;100.00;101070.56;4870306;29;20467;-72
2022/05/25 03:09:37;;;;;;;16.60;11.82;;;;;;;17.82;100.00;101057.19;4883523;29;20032;-72
2022/05/25 03:12:23;;;;;;;15.13;11.38;;;;;;;17.93;100.00;101064.69;4870886;29;20033;-72
2022/05/25 03:15:10;;;;;;;15.88;11.70;;;;;;;17.94;100.00;101063.75;4883806;29;20110;-73
2022/05/25 03:17:55;;;;;;;14.15;10.88;;;;;;;17.82;100.00;101058.94;4882582;29;20025;-73
2022/05/25 03:20:41;;;;;;;15.25;11.27;;;;;;;17.58;100.00;101066.13;4882980;29;20059;-72
2022/05/25 03:23:27;;;;;;;16.52;11.05;;;;;;;17.64;100.00;101057.91;4882989;29;20036;-72
2022/05/25 03:26:12;;;;;;;12.65;10.77;;;;;;;18.02;100.00;101062.50;4882892;29;20088;-72
2022/05/25 03:28:58;;;;;;;16.35;11.63;;;;;;;17.95;100.00;101073.41;4882540;29;20068;-72
2022/05/25 03:31:44;;;;;;;13.93;9.68;;;;;;;17.86;100.00;101079.97;4883058;29;20124;-72
2022/05/25 03:34:31;;;;;;;15.40;8.65;;;;;;;17.85;100.00;101072.09;4883353;29;20391;-73
2022/05/25 03:37:17;;;;;;;10.38;6.55;;;;;;;18.02;100.00;101082.84;4870536;29;20045;-73
2022/05/25 03:40:09;;;;;;;8.52;5.32;;;;;;;17.82;100.00;101088.09;4883410;29;20092;-72
2022/05/25 03:42:54;;;;;;;7.05;4.47;;;;;;;17.66;100.00;101087.00;4870776;29;20511;-73
2022/05/25 03:45:40;;;;;;;6.15;4.72;;;;;;;17.93;100.00;101085.88;4883631;29;20059;-73
2022/05/25 03:48:26;;;;;;;10.02;5.30;;;;;;;17.76;100.00;101083.06;4883012;29;20356;-73
2022/05/25 03:51:12;;;;;;;8.60;4.70;;;;;;;18.04;100.00;101080.97;4883294;29;20090;-71
2022/05/25 03:53:57;;;;;;;9.43;5.18;;;;;;;17.69;100.00;101089.53;4882422;29;20220;-72
2022/05/25 03:56:43;;;;;;;5.60;4.80;;;;;;;17.77;100.00;101095.41;4883086;29;20131;-73
2022/05/25 03:59:29;;;;;;;5.68;5.00;;;;;;;17.52;100.00;101107.91;4882912;29;20497;-72
2022/05/25 04:02:15;;;;;;;5.95;4.93;;;;;;;17.81;100.00;101092.53;4869504;29;20021;-72
2022/05/25 04:05:10;;;;;;;7.60;4.85;;;;;;;17.82;100.00;101098.72;4869290;29;20043;-73
2022/05/25 04:07:58;;;;;;;7.45;4.70;;;;;;;18.09;100.00;101101.06;4883142;29;20039;-74
2022/05/25 04:10:44;;;;;;;6.18;4.40;;;;;;;18.48;100.00;101111.78;4882170;29;20029;-73
2022/05/25 04:13:29;;;;;;;5.80;4.88;;;;;;;18.19;100.00;101099.78;4882798;29;20032;-73
2022/05/25 04:16:15;;;;;;;9.18;5.00;;;;;;;18.22;100.00;101098.78;4882035;29;20025;-72
2022/05/25 04:19:01;;;;;;;5.53;5.00;;;;;;;18.20;100.00;101103.25;4882160;29;20053;-72
2022/05/25 04:21:49;;;;;;;7.30;5.22;;;;;;;18.21;100.00;101100.56;4869002;29;20029;-75
2022/05/25 04:24:38;;;;;;;6.57;4.57;;;;;;;18.47;100.00;101105.66;4882392;29;20040;-73
2022/05/25 04:27:25;;;;;;;6.28;4.55;;;;;;;18.62;100.00;101097.00;4883084;29;20363;-73
2022/05/25 04:30:14;;;;;;;10.13;4.63;;;;;;;18.27;100.00;101107.38;4882481;29;20025;-73
2022/05/25 04:33:01;;;;;;;10.13;5.00;;;;;;;18.43;100.00;101096.09;4882727;29;20116;-73
2022/05/25 04:35:49;;;;;;;7.53;4.63;;;;;;;18.87;100.00;101095.00;4881199;29;20040;-74
2022/05/25 04:38:36;;;;;;;7.90;4.82;;;;;;;18.88;100.00;101101.13;4882504;29;20029;-73
2022/05/25 04:41:26;;;;;;;5.07;4.57;;;;;;;18.55;100.00;101089.38;4882063;29;20136;-74
2022/05/25 04:44:12;;;;;;;7.43;5.25;;;;;;;18.78;100.00;101098.03;4882215;29;20106;-72
2022/05/25 04:46:57;;;;;;;42.63;6.93;;;;;;;19.19;100.00;101104.13;4882225;29;20040;-73
2022/05/25 04:49:44;;;;;;;10.95;5.45;;;;;;;19.20;100.00;101104.06;4868746;29;20033;-73
2022/05/25 04:52:31;;;;;;;11.23;5.35;;;;;;;19.44;100.00;101101.22;4881029;29;20068;-72
2022/05/25 04:58:28;;;;;;;9.70;5.25;;;;;;;19.41;100.00;101110.16;4882083;29;20419;-73
2022/05/25 05:01:17;;;;;;;7.60;4.97;;;;;;;19.20;100.00;101109.38;4881240;29;20058;-71
2022/05/25 05:04:03;;;;;;;9.98;4.95;;;;;;;19.32;100.00;101113.28;4881136;29;20036;-72
2022/05/25 05:06:49;;;;;;;10.13;5.38;;;;;;;19.14;100.00;101117.59;4868577;29;20044;-73
2022/05/25 05:09:37;;;;;;;7.10;5.45;;;;;;;19.50;100.00;101112.41;4868059;29;20048;-72
2022/05/25 05:12:22;;;;;;;9.23;5.18;;;;;;;19.29;100.00;101118.72;4880879;29;20040;-72
2022/05/25 05:15:15;;;;;;;8.45;4.82;;;;;;;19.77;100.00;101120.84;5092146;27;20385;-73
2022/05/25 05:18:01;;;;;;;8.52;5.20;;;;;;;20.15;100.00;101117.19;5090600;28;20036;-72
2022/05/25 05:20:47;;;;;;;10.93;5.55;;;;;;;19.70;100.00;101112.31;5090403;28;20025;-72
2022/05/25 05:23:32;;;;;;;8.98;5.13;;;;;;;19.79;100.00;101109.22;5089735;28;20020;-73
2022/05/25 05:26:18;;;;;;;14.13;5.70;;;;;;;19.70;100.00;101112.31;5115870;28;20016;-72
2022/05/25 05:29:04;;;;;;;11.35;5.35;;;;;;;19.86;100.00;101118.63;5117278;28;20048;-75
2022/05/25 05:31:51;;;;;;;9.73;5.68;;;;;;;20.20;100.00;101118.69;5132245;28;20030;-72
2022/05/25 05:34:37;;;;;;;10.77;6.10;;;;;;;19.34;100.00;101122.03;5130355;28;20023;-72
2022/05/25 05:37:29;;;;;;;10.18;5.63;;;;;;;19.79;100.00;101122.50;5117786;28;20019;-73
2022/05/25 05:40:18;;;;;;;9.27;5.53;;;;;;;19.40;100.00;101137.69;5131726;28;20032;-72
2022/05/25 05:43:06;;;;;;;8.35;4.95;;;;;;;20.39;100.00;101134.56;5132714;28;20024;-73
2022/05/25 05:45:53;;;;;;;8.70;5.00;;;;;;;20.40;100.00;101137.16;5131645;28;20023;-73
2022/05/25 05:48:40;;;;;;;7.15;5.85;;;;;;;20.44;100.00;101133.41;5117863;28;20443;-72
2022/05/25 05:51:26;;;;;;;12.55;6.70;;;;;;;20.53;100.00;101138.25;5133543;27;20028;-73
2022/05/25 05:54:12;;;;;;;15.02;9.15;;;;;;;20.89;100.00;101138.97;5131408;28;20019;-73
2022/05/25 05:56:58;;;;;;;6.90;6.00;;;;;;;21.03;100.00;101136.50;5131392;28;20045;-72
2022/05/25 05:59:44;;;;;;;11.75;8.75;;;;;;;20.69;100.00;101147.16;5131391;28;20092;-72
2022/05/25 06:02:30;;;;;;;17.40;6.65;;;;;;;20.72;100.00;101149.66;5130652;28;20097;-72
2022/05/25 06:05:17;;;;;;;7.63;5.85;;;;;;;20.57;100.00;101149.63;5130817;28;20098;-73
2022/05/25 06:08:14;;;;;;;9.20;6.72;;;;;;;20.81;100.00;101157.16;5117718;28;20024;-73
2022/05/25 06:10:59;;;;;;;9.32;5.78;;;;;;;21.15;100.00;101149.16;5130503;28;20173;-72
2022/05/25 06:13:45;;;;;;;6.93;5.72;;;;;;;21.31;100.00;101150.03;5130611;28;20043;-72
2022/05/25 06:19:37;;;;;;;12.23;6.10;;;;;;;21.15;100.00;101146.50;5131891;28;20027;-73
2022/05/25 06:22:23;;;;;;;8.73;5.50;;;;;;;21.44;100.00;101151.09;5116792;28;20081;-73
2022/05/25 06:25:09;;;;;;;11.27;6.55;;;;;;;21.79;100.00;101149.16;5125906;28;20038;-73
2022/05/25 06:27:55;;;;;;;7.35;6.40;;;;;;;21.78;100.00;101150.09;5117162;28;20027;-74
2022/05/25 06:30:41;;;;;;;9.27;6.18;;;;;;;21.50;100.00;101148.06;5103146;28;20023;-72
2022/05/25 06:33:27;;;;;;;9.45;5.93;;;;;;;22.34;100.00;101143.19;5103902;28;20347;-72
2022/05/25 06:36:14;;;;;;;7.47;5.35;;;;;;;22.54;100.00;101150.03;5117030;28;20045;-74
2022/05/25 06:38:59;;;;;;;9.75;5.05;;;;;;;22.40;100.00;101144.63;5116853;28;20027;-74
2022/05/25 06:41:45;;;;;;;7.68;4.68;;;;;;;22.51;100.00;101142.22;5116782;28;20050;-75
2022/05/25 06:44:32;;;;;;;4.95;4.38;;;;;;;22.63;100.00;101153.03;5116395;28;20042;-75
2022/05/25 06:47:17;;;;;;;11.00;5.65;;;;;;;22.83;100.00;101149.16;5101985;28;20110;-74
2022/05/25 06:50:04;;;;;;;7.30;4.90;;;;;;;23.00;100.00;101144.50;5117418;28;20035;-74
2022/05/25 06:52:51;;;;;;;8.68;5.10;;;;;;;22.72;100.00;101144.47;5115891;28;20020;-74
2022/05/25 06:55:40;;;;;;;7.55;5.07;;;;;;;22.77;100.00;101139.72;5117525;28;20035;-73
2022/05/25 06:58:25;;;;;;;7.97;4.80;;;;;;;22.34;100.00;101139.69;5097247;28;20031;-73
2022/05/25 07:01:11;;;;;;;6.05;4.60;;;;;;;23.04;100.00;101140.69;5116684;28;20356;-74
2022/05/25 07:03:57;;;;;;;26.90;16.25;;;;;;;23.52;100.00;101135.91;5119169;28;20032;-76
2022/05/25 07:06:43;;;;;;;10.98;6.78;;;;;;;23.32;100.00;101143.34;5120855;28;20035;-73
2022/05/25 07:09:30;;;;;;;21.40;7.93;;;;;;;23.32;100.00;101147.88;5117640;28;20024;-76
2022/05/25 07:12:19;;;;;;;13.30;6.90;;;;;;;23.34;100.00;101143.25;5118707;28;20019;-73
2022/05/25 07:15:29;;;;;;;14.00;7.07;;;;;;;23.32;100.00;101145.19;5118376;28;20036;-74
2022/05/25 07:18:15;;;;;;;10.18;6.40;;;;;;;23.51;100.00;101135.06;5119651;28;20467;-73
2022/05/25 07:21:08;;;;;;;12.20;6.55;;;;;;;23.46;100.00;101155.03;5119319;28;20027;-77
2022/05/25 07:23:57;;;;;;;12.82;6.00;;;;;;;24.11;100.00;101151.63;5118290;28;20016;-72
2022/05/25 07:26:42;;;;;;;10.63;6.63;;;;;;;23.73;100.00;101146.06;5100958;28;20059;-73
2022/05/25 07:29:28;;;;;;;9.45;6.05;;;;;;;24.06;100.00;101145.72;5116047;28;20020;-73
2022/05/25 07:32:14;;;;;;;20.50;6.00;;;;;;;24.12;100.00;101147.97;5115538;28;20027;-72
2022/05/25 07:35:12;;;;;;;10.52;6.65;;;;;;;24.11;100.00;101154.31;5114774;28;20116;-73
2022/05/25 07:37:59;;;;;;;10.35;6.38;;;;;;;24.37;100.00;101143.56;5115390;28;20325;-73
2022/05/25 07:40:46;;;;;;;11.48;7.45;;;;;;;24.29;100.00;101151.25;5115134;28;20031;-73
2022/05/25 07:43:32;;;;;;;7.70;6.10;;;;;;;24.73;100.00;101156.31;5116063;28;20030;-73
2022/05/25 07:46:18;;;;;;;12.02;6.60;;;;;;;24.35;100.00;101152.66;5115982;28;20030;-75
2022/05/25 07:49:04;;;;;;;7.00;6.07;;;;;;;24.52;100.00;101157.75;5115924;28;20031;-74
2022/05/25 07:51:52;;;;;;;10.07;5.25;;;;;;;24.58;100.00;101162.66;5115051;28;20036;-75
2022/05/25 07:54:42;;;;;;;8.88;5.00;;;;;;;24.82;100.00;101158.34;5116143;28;20430;-74
2022/05/25 07:57:28;;;;;;;7.75;5.30;;;;;;;24.78;100.00;101154.16;5115494;28;20035;-74
2022/05/25 08:00:16;;;;;;;11.75;5.47;;;;;;;25.40;100.00;101156.00;5100162;28;20488;-75
2022/05/25 08:06:07;;;;;;;7.57;4.85;;;;;;;25.38;100.00;101169.53;5115312;28;20563;-75
2022/05/25 08:08:54;;;;;;;5.32;4.82;;;;;;;25.51;100.00;101170.34;5115127;28;20061;-74
2022/05/25 08:11:40;;;;;;;12.27;4.95;;;;;;;25.76;100.00;101167.59;5114583;28;20448;-75
2022/05/25 08:14:29;;;;;;;7.45;4.80;;;;;;;26.40;100.00;101167.25;5100772;28;20112;-74
2022/05/25 08:17:14;;;;;;;6.63;4.60;;;;;;;26.29;100.00;101167.19;5115402;28;20024;-75
2022/05/25 08:20:00;;;;;;;6.55;4.70;;;;;;;26.77;100.00;101170.72;5115794;28;20027;-75
2022/05/25 08:22:47;;;;;;;4.90;4.28;;;;;;;26.95;100.00;101174.66;5115687;28;20034;-75
2022/05/25 08:25:34;;;;;;;5.32;4.15;;;;;;;26.86;100.00;101168.16;5115316;28;20020;-75
2022/05/25 08:28:19;;;;;;;6.28;4.10;;;;;;;27.22;100.00;101167.13;5114633;28;20114;-75
2022/05/25 08:31:06;;;;;;;10.85;4.60;;;;;;;27.52;98.27;101164.66;5114574;28;20370;-75
2022/05/25 08:33:52;;;;;;;6.45;4.38;;;;;;;26.74;100.00;101157.50;5114820;28;20023;-74
2022/05/25 08:36:38;;;;;;;7.65;5.32;;;;;;;27.08;100.00;101159.25;5115192;28;20023;-75
2022/05/25 08:39:23;;;;;;;7.20;5.05;;;;;;;27.88;96.95;101164.41;5115672;28;20053;-75
2022/05/25 08:42:15;;;;;;;5.75;4.63;;;;;;;27.84;96.25;101162.94;5116888;28;20448;-72
2022/05/25 08:45:01;;;;;;;7.30;4.68;;;;;;;27.76;95.86;101169.94;5102457;28;20027;-75
2022/05/25 08:47:52;;;;;;;6.18;4.32;;;;;;;27.45;98.21;101171.56;5115663;28;20027;-73
2022/05/25 08:50:39;;;;;;;5.40;4.03;;;;;;;27.81;95.56;101168.56;5116741;28;20403;-75
2022/05/25 08:53:25;;;;;;;6.03;4.00;;;;;;;27.49;96.49;101168.47;5114678;28;20028;-75
2022/05/25 08:56:35;;;;;;;6.55;3.70;;;;;;;27.98;91.76;101176.16;5099777;28;20459;-75
2022/05/25 08:59:44;;;;;;;8.00;3.90;;;;;;;27.79;91.17;101170.53;5113990;28;20028;-74
2022/05/25 09:02:46;;;;;;;21.20;15.45;;;;;;;28.08;88.83;101170.88;5100283;28;20106;-73
2022/05/25 09:06:05;;;;;;;8.35;6.10;;;;;;;27.98;86.50;101162.69;5113954;28;20016;-75
2022/05/25 09:09:17;;;;;;;4.72;4.20;;;;;;;28.34;85.59;101164.13;5114509;28;20114;-74
2022/05/25 09:12:12;;;;;;;8.35;3.95;;;;;;;28.49;82.55;101157.50;5114474;28;20028;-74
2022/05/25 09:15:17;;;;;;;6.47;4.28;;;;;;;28.57;82.09;101166.63;5114248;28;20054;-73
2022/05/25 09:18:15;;;;;;;8.80;2.80;;;;;;;28.67;75.95;101156.78;5114386;28;20031;-73
2022/05/25 09:21:04;;;;;;;5.78;2.83;;;;;;;27.80;76.37;101155.22;5114644;28;20526;-72
2022/05/25 09:23:53;;;;;;;4.50;3.05;;;;;;;28.16;74.98;101155.75;5099134;28;20141;-73
2022/05/25 09:26:39;;;;;;;14.65;10.48;;;;;;;28.15;80.50;101151.34;5113838;28;20033;-73
2022/05/25 09:29:25;;;;;;;8.52;3.72;;;;;;;27.91;81.70;101163.28;5113807;28;20447;-73
2022/05/25 09:32:44;;;;;;;7.47;3.17;;;;;;;28.53;74.37;101172.44;5099573;28;20046;-73
2022/05/25 09:35:36;;;;;;;6.97;3.03;;;;;;;28.80;70.54;101179.00;5099262;28;20024;-74
2022/05/25 09:38:42;;;;;;;3.65;3.00;;;;;;;28.77;65.59;101173.03;5114723;28;20513;-74
2022/05/25 09:41:31;;;;;;;6.40;2.70;;;;;;;28.54;72.55;101164.22;5114806;28;20027;-73
2022/05/25 09:44:22;;;;;;;5.80;3.30;;;;;;;28.31;74.12;101157.16;5114613;28;20478;-75
2022/05/25 09:47:19;;;;;;;6.38;3.10;;;;;;;28.10;78.61;101160.81;5114346;28;20134;-75
2022/05/25 09:50:06;;;;;;;5.95;3.20;;;;;;;28.15;80.60;101151.34;5100185;28;20376;-75
2022/05/25 09:52:54;;;;;;;5.30;3.03;;;;;;;28.79;75.03;101160.25;5113724;28;20028;-75
2022/05/25 09:55:44;;;;;;;4.13;2.80;;;;;;;28.52;76.88;101159.94;5100340;28;20040;-74
2022/05/25 09:58:36;;;;;;;6.47;2.97;;;;;;;28.44;74.63;101155.19;5099237;28;20042;-75
2022/05/25 10:01:32;;;;;;;6.18;3.30;;;;;;;28.73;74.54;101147.31;5117472;28;20036;-74
2022/05/25 10:04:56;;;;;;;5.03;3.15;;;;;;;28.39;76.16;101148.44;5118249;28;20031;-75
2022/05/25 10:08:12;;;;;;;7.10;2.70;;;;;;;28.78;71.19;101145.94;5117446;28;20120;-74
2022/05/25 10:11:08;;;;;;;5.55;2.70;;;;;;;28.97;69.01;101146.03;5117865;28;20055;-74
2022/05/25 10:13:56;;;;;;;7.35;3.30;;;;;;;28.29;72.00;101145.66;5087659;28;20039;-75
2022/05/25 10:16:42;;;;;;;8.73;3.38;;;;;;;28.66;72.87;101133.50;5103094;28;20020;-74
2022/05/25 10:19:28;;;;;;;4.55;2.95;;;;;;;28.36;67.99;101130.69;5118107;28;20050;-74
2022/05/25 10:22:37;;;;;;;4.85;2.80;;;;;;;28.95;71.54;101134.53;5118376;28;20032;-74
2022/05/25 10:25:47;;;;;;;17.58;15.70;;;;;;;28.45;72.67;101126.38;5117604;28;20023;-75
2022/05/25 10:28:43;;;;;;;3.72;2.90;;;;;;;28.41;73.02;101122.22;5117225;28;20084;-74
2022/05/25 10:37:54;;;;;;;5.20;3.22;;;;;;;28.54;71.55;101125.59;5117775;28;20027;-75
2022/05/25 10:40:44;;;;;;;4.72;2.80;;;;;;;29.02;68.42;101141.16;5117378;28;20455;-75
2022/05/25 10:43:30;;;;;;;6.82;2.88;;;;;;;28.70;67.08;101132.25;5117059;28;20027;-74
2022/05/25 10:46:16;;;;;;;5.20;2.92;;;;;;;29.22;68.24;101129.44;5117045;28;20031;-74
2022/05/25 10:49:29;;;;;;;3.78;2.80;;;;;;;28.98;67.23;101128.00;5116872;28;20360;-74
2022/05/25 10:52:35;;;;;;;5.45;2.72;;;;;;;28.76;68.56;101125.47;5116975;28;20046;-75
2022/05/25 10:55:28;;;;;;;80.40;69.38;;;;;;;29.15;68.89;101128.28;5102580;28;20039;-74
2022/05/25 10:58:33;;;;;;;4.05;3.45;;;;;;;29.00;67.30;101135.00;5101580;28;20024;-75
2022/05/25 11:01:21;;;;;;;4.88;2.88;;;;;;;29.15;67.39;101128.28;5117281;28;20050;-75
2022/05/25 11:04:28;;;;;;;5.97;3.42;;;;;;;29.69;67.31;101127.94;5116931;28;20153;-74
2022/05/25 11:07:36;;;;;;;4.97;2.58;;;;;;;29.69;63.33;101117.97;5116971;28;20089;-75
2022/05/25 11:10:39;;;;;;;10.60;3.28;;;;;;;29.66;63.36;101112.84;5116717;28;20027;-74
2022/05/25 11:13:31;;;;;;;5.95;3.03;;;;;;;30.18;64.32;101107.09;5116303;28;20085;-75
2022/05/25 11:16:32;;;;;;;4.60;2.97;;;;;;;29.85;62.05;101090.44;5116701;28;20028;-74
2022/05/25 11:19:29;;;;;;;6.68;3.05;;;;;;;29.74;62.31;101104.06;5116646;28;20115;-75
2022/05/25 11:22:37;;;;;;;6.95;3.40;;;;;;;29.51;64.07;101092.59;5116509;28;20030;-76
2022/05/25 11:25:22;;;;;;;4.85;3.08;;;;;;;29.39;64.56;101095.53;5116485;28;20038;-75
2022/05/25 11:28:13;;;;;;;4.20;3.00;;;;;;;29.66;60.34;101093.91;5115332;28;20364;-75
2022/05/25 11:31:23;;;;;;;6.38;3.20;;;;;;;29.81;63.09;101084.44;5117491;28;20041;-74
2022/05/25 11:34:27;;;;;;;4.20;3.03;;;;;;;29.88;62.37;101092.81;5115663;28;20093;-75
2022/05/25 11:37:55;;;;;;;5.60;2.67;;;;;;;30.12;60.83;101090.56;5116869;28;20042;-76
2022/05/25 11:40:49;;;;;;;7.43;2.80;;;;;;;30.18;60.84;101087.34;5116196;28;20024;-75
2022/05/25 11:43:38;;;;;;;5.60;3.13;;;;;;;29.77;61.69;101084.88;5116320;28;20016;-75
2022/05/25 11:46:49;;;;;;;6.18;3.03;;;;;;;29.62;61.18;101089.78;5102114;28;20045;-75
2022/05/25 11:49:47;;;;;;;5.68;3.20;;;;;;;29.89;61.30;101084.59;5117311;28;20076;-75
2022/05/25 11:52:55;;;;;;;5.88;3.15;;;;;;;29.96;61.57;101098.38;5115928;28;20126;-74
2022/05/25 11:56:05;;;;;;;3.10;2.80;;;;;;;30.07;60.15;101095.53;5115882;28;20407;-75
2022/05/25 11:59:13;;;;;;;8.13;3.40;;;;;;;30.16;60.16;101089.31;5102966;28;20051;-76
2022/05/25 12:02:15;;;;;;;4.70;2.72;;;;;;;30.07;60.48;101091.00;5116270;28;20027;-75
2022/05/25 12:05:31;;;;;;;4.40;2.80;;;;;;;29.40;62.47;101084.59;5115466;28;20028;-75
2022/05/25 12:08:17;;;;;;;4.60;3.03;;;;;;;30.45;61.19;101084.72;5115767;28;20059;-75
2022/05/25 12:11:30;;;;;;;5.18;2.83;;;;;;;30.58;58.38;101069.06;5099658;28;20023;-76
2022/05/25 12:14:36;;;;;;;7.75;3.33;;;;;;;30.89;58.46;101063.31;5115188;28;20048;-75
2022/05/25 12:17:40;;;;;;;5.00;3.13;;;;;;;30.76;59.21;101067.34;5115161;28;20019;-75
2022/05/25 12:20:36;;;;;;;4.55;2.97;;;;;;;31.11;59.03;101056.66;5115024;28;20046;-75
2022/05/25 12:23:29;;;;;;;3.90;2.70;;;;;;;30.56;59.35;101057.53;5114256;28;20047;-75
2022/05/25 12:26:22;;;;;;;5.22;3.05;;;;;;;31.29;57.76;101058.44;5115903;28;20054;-75
2022/05/25 12:29:14;;;;;;;4.95;3.53;;;;;;;30.76;56.98;101060.06;5114944;28;20024;-74
2022/05/25 12:32:00;;;;;;;6.18;3.03;;;;;;;30.38;58.14;101052.00;5114808;28;20460;-74
2022/05/25 12:34:50;;;;;;;4.95;2.85;;;;;;;30.09;60.15;101045.75;5100695;28;20114;-75
2022/05/25 12:37:40;;;;;;;4.28;3.15;;;;;;;30.83;58.63;101046.81;5114349;28;20019;-75
2022/05/25 12:40:26;;;;;;;9.00;3.90;;;;;;;30.83;57.95;101041.41;5114860;28;20027;-75
2022/05/25 12:43:33;;;;;;;22.63;17.50;;;;;;;30.83;58.08;101036.81;5114741;28;20027;-75
2022/05/25 12:49:46;;;;;;;5.28;3.35;;;;;;;30.63;57.33;101027.06;5115281;28;20471;-75
2022/05/25 12:52:41;;;;;;;8.13;3.10;;;;;;;30.58;55.96;101028.50;5114695;28;20028;-74
2022/05/25 12:55:32;;;;;;;4.88;3.08;;;;;;;30.28;56.97;101017.88;5114053;28;20031;-75
2022/05/25 12:58:42;;;;;;;7.78;4.45;;;;;;;30.60;56.48;101018.38;5115226;28;20363;-75
2022/05/25 13:01:35;;;;;;;8.85;3.50;;;;;;;30.78;55.39;101016.63;5114903;28;20059;-75
2022/05/25 13:04:39;;;;;;;6.13;3.30;;;;;;;30.49;55.94;101019.38;5114591;28;20448;-75
2022/05/25 13:07:36;;;;;;;4.63;3.08;;;;;;;30.23;57.31;101020.16;5100662;28;20435;-76
2022/05/25 13:10:31;;;;;;;5.00;3.15;;;;;;;30.17;58.16;101015.31;5099878;28;20456;-75
2022/05/25 13:13:36;;;;;;;6.00;3.97;;;;;;;30.56;58.40;101014.25;5110942;28;20059;-75
2022/05/25 13:16:40;;;;;;;5.88;3.50;;;;;;;30.82;55.76;101007.22;5093694;28;20051;-75
2022/05/25 13:19:29;;;;;;;6.85;3.70;;;;;;;31.12;55.30;101001.50;5094121;28;20135;-75
2022/05/25 13:22:23;;;;;;;10.18;3.47;;;;;;;30.94;54.63;101001.44;5094058;28;20028;-75
2022/05/25 13:25:14;;;;;;;7.07;3.65;;;;;;;30.95;54.76;100997.72;5093200;28;20082;-75
2022/05/25 13:28:25;;;;;;;6.20;3.10;;;;;;;31.22;52.99;100994.19;5093977;28;20031;-76
2022/05/25 13:31:32;;;;;;;6.78;3.30;;;;;;;30.90;53.71;100983.81;5094321;28;20107;-75
2022/05/25 13:34:19;;;;;;;6.20;4.22;;;;;;;30.97;53.66;100990.31;5094446;28;20034;-75